This is the latest recevied weather packets stored in our database for station/object SP6KBU-8. If no packets are shown the sender has not sent any weather packets the latest 10 day(s).
| Time | Temp. | Humidity | Pressure | Rain* | Wind** | Luminosity | Snow |
|---|---|---|---|---|---|---|---|
| 1777889098 | 25.56° C | 33% | 1015.5 hPa | - | - | - | - |
| 1777889029 | 25° C | 31% | 1015.5 hPa | - | - | - | - |
| 1777887228 | 33.89° C | 17% | 1015.5 hPa | - | - | - | - |
| 1777886329 | 33.89° C | 17% | 1015.6 hPa | - | - | - | - |
| 1777885428 | 35° C | 16% | 1015.5 hPa | - | - | - | - |
| 1777884528 | 33.89° C | 18% | 1015.5 hPa | - | - | - | - |
| 1777883628 | 31.11° C | 20% | 1015.5 hPa | - | - | - | - |
| 1777882728 | 28.33° C | 24% | 1015.4 hPa | - | - | - | - |
| 1777881828 | 26.67° C | 24% | 1015.4 hPa | - | - | - | - |
| 1777880928 | 25° C | 28% | 1015.4 hPa | - | - | - | - |
| 1777880027 | 23.33° C | 30% | 1015.6 hPa | - | - | - | - |
| 1777879127 | 22.22° C | 31% | 1015.6 hPa | - | - | - | - |
| 1777878227 | 21.67° C | 32% | 1015.3 hPa | - | - | - | - |
| 1777877327 | 21.67° C | 32% | 1015.6 hPa | - | - | - | - |
| 1777876427 | 21.11° C | 32% | 1015.6 hPa | - | - | - | - |
| 1777874627 | 18.89° C | 35% | 1015.5 hPa | - | - | - | - |
| 1777873726 | 17.78° C | 36% | 1015.3 hPa | - | - | - | - |
| 1777872826 | 17.22° C | 38% | 1015.3 hPa | - | - | - | - |
| 1777871926 | 17.22° C | 37% | 1015.5 hPa | - | - | - | - |
| 1777871026 | 16.67° C | 38% | 1015.5 hPa | - | - | - | - |
| 1777870126 | 16.11° C | 39% | 1015.5 hPa | - | - | - | - |
| 1777869229 | 15.56° C | 39% | 1015.5 hPa | - | - | - | - |
| 1777868329 | 16.11° C | 39% | 1015.2 hPa | - | - | - | - |
| 1777867425 | 15.56° C | 39% | 1015.2 hPa | - | - | - | - |
| 1777866525 | 15.56° C | 40% | 1015 hPa | - | - | - | - |
* Rain since midnight (hover to see other rain measurements)
** Current wind speed in m/s (hover to see current wind gust speed)